Time;durP1;ratioP1;P1;durP2;ratioP2;P2;SDS_P1;SDS_P2;PMS_P1;PMS_P2;Temp;Humidity;BMP_temperature;BMP_pressure;BME280_temperature;BME280_humidity;BME280_pressure;Samples;Min_cycle;Max_cycle;Signal;HPM_P1;HPM_P2
2022/11/12 00:00:14;;;;;;;;;;;;;;;25.16;45.91;95705.56;4975476;28;9033;-62
2022/11/12 00:02:47;;;;;;;;;;;;;;;25.15;46.37;95704.03;4974360;28;7010;-62
2022/11/12 00:05:15;;;;;;;;;;;;;;;25.15;46.49;95712.28;4982990;28;9309;-62
2022/11/12 00:07:44;;;;;;;;;;;;;;;25.14;46.36;95706.00;4975181;28;7190;-62
2022/11/12 00:10:11;;;;;;;;;;;;;;;25.17;46.30;95710.56;4961895;28;7264;-60
2022/11/12 00:12:38;;;;;;;;;;;;;;;25.17;46.39;95716.09;4976011;28;9401;-60
2022/11/12 00:15:13;;;;;;;;;;;;;;;25.17;46.18;95718.06;4958447;28;9033;-61
2022/11/12 00:17:40;;;;;;;;;;;;;;;25.15;46.59;95732.31;4976899;28;6971;-61
2022/11/12 00:20:15;;;;;;;;;;;;;;;25.16;45.97;95728.34;4957136;28;7600;-61
2022/11/12 00:22:44;;;;;;;;;;;;;;;25.16;46.04;95730.34;4983584;28;8239;-61
2022/11/12 00:25:10;;;;;;;;;;;;;;;25.15;46.45;95731.56;4973127;28;7350;-61
2022/11/12 00:27:38;;;;;;;;;;;;;;;25.14;46.35;95725.28;4971906;28;7013;-61
2022/11/12 00:30:08;;;;;;;;;;;;;;;25.16;46.49;95727.59;4988375;28;7097;-61
2022/11/12 00:32:39;;;;;;;;;;;;;;;25.15;46.31;95726.81;4986753;28;9675;-61
2022/11/12 00:35:11;;;;;;;;;;;;;;;25.16;46.00;95722.84;4982258;28;7109;-61
2022/11/12 00:37:37;;;;;;;;;;;;;;;25.17;46.20;95729.09;5003083;28;7382;-61
2022/11/12 00:40:05;;;;;;;;;;;;;;;25.14;46.00;95719.78;5010220;28;7266;-61
2022/11/12 00:42:31;;;;;;;;;;;;;;;25.15;46.81;95724.06;5013486;28;7104;-61
2022/11/12 00:44:58;;;;;;;;;;;;;;;25.15;45.84;95724.06;5026831;28;7026;-61
2022/11/12 00:47:29;;;;;;;;;;;;;;;25.16;46.79;95722.06;5012422;28;7024;-61
2022/11/12 00:50:25;;;;;;;;;;;;;;;25.16;46.65;95722.06;4999890;28;7178;-61
2022/11/12 00:52:53;;;;;;;;;;;;;;;25.15;45.67;95724.06;4924072;28;7123;-61
2022/11/12 00:55:19;;;;;;;;;;;;;;;25.13;46.40;95723.78;4952586;28;7303;-61
2022/11/12 00:57:47;;;;;;;;;;;;;;;25.14;45.89;95725.28;4938691;28;9548;-61
2022/11/12 01:00:28;;;;;;;;;;;;;;;25.12;46.67;95727.75;4937879;28;9001;-61
2022/11/12 01:03:03;;;;;;;;;;;;;;;25.13;46.09;95725.78;4953007;28;9660;-61
2022/11/12 01:05:33;;;;;;;;;;;;;;;25.11;46.46;95720.75;4928353;28;7402;-61
2022/11/12 01:08:00;;;;;;;;;;;;;;;25.10;46.08;95727.47;4940229;28;7380;-61
2022/11/12 01:10:26;;;;;;;;;;;;;;;25.11;46.41;95725.50;4968538;28;7426;-61
2022/11/12 01:12:55;;;;;;;;;;;;;;;25.11;45.96;95720.75;4944745;28;7364;-61
2022/11/12 01:15:30;;;;;;;;;;;;;;;25.13;46.50;95715.53;4951783;28;7025;-61
2022/11/12 01:17:56;;;;;;;;;;;;;;;25.11;46.44;95717.22;4950288;28;7724;-61
2022/11/12 01:20:24;;;;;;;;;;;;;;;25.09;46.42;95720.47;4933810;28;7264;-61
2022/11/12 01:22:58;;;;;;;;;;;;;;;25.09;46.26;95722.44;4926017;28;7157;-61
2022/11/12 01:25:29;;;;;;;;;;;;;;;25.11;46.69;95719.97;4938632;28;7058;-61
2022/11/12 01:27:55;;;;;;;;;;;;;;;25.12;46.29;95716.00;4925840;28;9050;-61
2022/11/12 01:30:24;;;;;;;;;;;;;;;25.10;46.01;95713.72;4987497;28;7117;-61
2022/11/12 01:32:54;;;;;;;;;;;;;;;25.09;46.45;95708.69;5003159;28;8226;-61
2022/11/12 01:35:22;;;;;;;;;;;;;;;25.09;46.48;95708.69;5011318;28;8632;-61
2022/11/12 01:37:48;;;;;;;;;;;;;;;25.09;46.23;95694.94;5003429;28;6989;-61
2022/11/12 01:40:17;;;;;;;;;;;;;;;25.06;46.15;95696.63;4992675;28;7304;-61
2022/11/12 01:42:53;;;;;;;;;;;;;;;25.10;46.30;95699.22;5004445;28;7766;-61
2022/11/12 01:45:21;;;;;;;;;;;;;;;25.10;46.25;95696.47;4996763;28;9081;-61
2022/11/12 01:47:54;;;;;;;;;;;;;;;25.09;46.05;95692.16;5002330;28;7331;-61
2022/11/12 01:50:26;;;;;;;;;;;;;;;25.08;45.80;95685.91;4995699;28;7172;-62
2022/11/12 01:53:12;;;;;;;;;;;;;;;25.09;46.04;95687.44;5002116;28;7046;-61
2022/11/12 01:55:40;;;;;;;;;;;;;;;25.07;46.25;95692.66;5008096;28;8954;-62
2022/11/12 01:58:39;;;;;;;;;;;;;;;25.08;46.37;95688.66;4992686;28;7177;-62
2022/11/12 02:01:13;;;;;;;;;;;;;;;25.10;46.55;95685.44;4928753;28;7117;-62
2022/11/12 02:03:40;;;;;;;;;;;;;;;25.09;46.89;95684.69;4928367;28;7123;-62
2022/11/12 02:06:11;;;;;;;;;;;;;;;25.10;45.93;95682.69;4944929;28;7196;-61
2022/11/12 02:08:40;;;;;;;;;;;;;;;25.08;46.13;95685.13;4929201;29;7480;-62
2022/11/12 02:11:14;;;;;;;;;;;;;;;25.07;46.01;95681.66;4925591;28;7283;-66
2022/11/12 02:14:03;;;;;;;;;;;;;;;25.07;46.13;95680.88;4927619;28;6963;-61
2022/11/12 02:16:36;;;;;;;;;;;;;;;25.09;46.22;95681.16;4937729;28;7045;-62
2022/11/12 02:19:35;;;;;;;;;;;;;;;25.05;46.21;95673.09;4946305;28;7064;-62
2022/11/12 02:22:10;;;;;;;;;;;;;;;25.07;46.00;95687.16;4910311;29;7418;-62
2022/11/12 02:24:49;;;;;;;;;;;;;;;25.08;46.43;95679.63;4897783;29;7028;-62
2022/11/12 02:27:16;;;;;;;;;;;;;;;25.07;46.48;95680.88;4913111;29;7044;-62
2022/11/12 02:29:48;;;;;;;;;;;;;;;25.06;46.05;95673.84;4906196;29;7407;-62
2022/11/12 02:32:16;;;;;;;;;;;;;;;25.05;46.75;95680.59;4897226;29;7126;-62
2022/11/12 02:34:44;;;;;;;;;;;;;;;25.05;46.33;95672.34;4909564;29;7435;-62
2022/11/12 02:37:12;;;;;;;;;;;;;;;25.06;46.73;95684.84;4957375;28;9265;-61
2022/11/12 02:39:40;;;;;;;;;;;;;;;25.05;45.90;95683.34;4955478;28;7274;-62
2022/11/12 02:42:15;;;;;;;;;;;;;;;25.07;46.60;95680.88;4980493;28;7246;-62
2022/11/12 02:44:44;;;;;;;;;;;;;;;25.05;46.31;95683.34;4971502;28;7206;-62
2022/11/12 02:47:09;;;;;;;;;;;;;;;25.03;46.68;95681.09;4961317;28;7587;-62
2022/11/12 02:49:40;;;;;;;;;;;;;;;25.04;45.96;95687.31;4971140;28;9352;-62
2022/11/12 02:52:08;;;;;;;;;;;;;;;25.07;46.82;95691.88;4970390;28;9367;-61
2022/11/12 02:54:50;;;;;;;;;;;;;;;25.06;46.25;95688.38;4971098;28;9042;-61
2022/11/12 02:57:18;;;;;;;;;;;;;;;25.07;46.50;95678.13;4975142;28;9144;-61
2022/11/12 02:59:44;;;;;;;;;;;;;;;25.02;45.99;95682.31;5007744;28;8410;-62
2022/11/12 03:02:29;;;;;;;;;;;;;;;24.99;46.25;95680.50;4998778;28;7007;-62
2022/11/12 03:05:00;;;;;;;;;;;;;;;24.99;46.36;95688.75;5036136;28;7038;-62
2022/11/12 03:07:26;;;;;;;;;;;;;;;25.00;46.79;95689.50;4997490;28;7262;-62
2022/11/12 03:09:52;;;;;;;;;;;;;;;25.00;46.42;95678.50;4996782;28;7157;-61
2022/11/12 03:12:21;;;;;;;;;;;;;;;25.01;46.37;95674.53;5014211;28;9358;-62
2022/11/12 03:14:56;;;;;;;;;;;;;;;24.99;46.38;95674.25;5006773;28;7079;-62
2022/11/12 03:17:28;;;;;;;;;;;;;;;24.93;46.18;95671.38;5003831;28;9164;-62
2022/11/12 03:20:02;;;;;;;;;;;;;;;24.96;46.38;95670.44;5009961;28;9042;-62
2022/11/12 03:22:35;;;;;;;;;;;;;;;24.96;46.34;95664.19;5013427;28;7039;-62
2022/11/12 03:25:03;;;;;;;;;;;;;;;24.97;46.65;95673.97;5002464;28;7037;-62
2022/11/12 03:27:29;;;;;;;;;;;;;;;24.96;45.86;95667.69;5010186;28;7173;-62
2022/11/12 03:30:04;;;;;;;;;;;;;;;24.98;46.67;95667.22;5003236;28;7013;-62
2022/11/12 03:32:44;;;;;;;;;;;;;;;24.94;46.61;95672.16;5009808;28;9373;-62
2022/11/12 03:35:12;;;;;;;;;;;;;;;24.95;46.90;95670.91;4997460;28;7044;-62
2022/11/12 03:37:40;;;;;;;;;;;;;;;24.93;46.59;95665.88;5011084;28;8938;-62
2022/11/12 03:40:10;;;;;;;;;;;;;;;24.97;46.86;95669.19;5000935;28;7613;-62
2022/11/12 03:42:43;;;;;;;;;;;;;;;24.95;46.32;95657.16;4994248;28;7514;-62
2022/11/12 03:45:12;;;;;;;;;;;;;;;24.96;46.14;95653.16;5000197;28;7130;-61
2022/11/12 03:47:49;;;;;;;;;;;;;;;24.96;46.72;95653.16;5014973;28;7058;-62
2022/11/12 03:50:23;;;;;;;;;;;;;;;24.96;45.97;95647.66;5014965;28;7250;-61
2022/11/12 03:53:18;;;;;;;;;;;;;;;24.98;46.01;95645.97;4998364;28;7970;-61
2022/11/12 03:55:44;;;;;;;;;;;;;;;24.95;46.20;95649.66;4973191;28;7009;-62
2022/11/12 03:58:10;;;;;;;;;;;;;;;24.96;45.90;95650.41;4988411;28;7421;-62
2022/11/12 04:00:35;;;;;;;;;;;;;;;24.91;46.68;95645.56;4987420;28;9209;-62
2022/11/12 04:03:37;;;;;;;;;;;;;;;24.90;46.41;95644.06;4951894;28;7286;-62
2022/11/12 04:08:58;;;;;;;;;;;;;;;24.91;46.86;95643.59;4929008;29;7069;-62
2022/11/12 04:11:33;;;;;;;;;;;;;;;24.85;46.98;95653.75;4930585;29;7013;-62
2022/11/12 04:14:01;;;;;;;;;;;;;;;24.85;46.48;95644.72;4918129;29;7881;-62
2022/11/12 04:22:34;;;;;;;;;;;;;;;24.73;46.74;95629.25;4906084;29;8257;-62
2022/11/12 04:28:00;;;;;;;;;;;;;;;24.69;46.98;95624.69;4914941;29;7298;-62
2022/11/12 04:30:30;;;;;;;;;;;;;;;24.70;47.61;95628.97;4918785;29;7333;-61
2022/11/12 04:33:10;;;;;;;;;;;;;;;24.69;46.89;95630.19;4948612;28;8997;-62
2022/11/12 04:35:35;;;;;;;;;;;;;;;24.75;47.38;95632.31;4964019;28;7373;-62
2022/11/12 04:38:03;;;;;;;;;;;;;;;24.69;47.22;95630.19;4963571;28;7605;-62
2022/11/12 04:46:28;;;;;;;;;;;;;;;24.65;47.27;95621.38;4974993;28;9632;-62
2022/11/12 04:49:06;;;;;;;;;;;;;;;24.65;47.40;95623.38;4966933;28;9385;-62
2022/11/12 04:54:32;;;;;;;;;;;;;;;24.68;46.88;95616.94;4978513;28;7285;-62
2022/11/12 04:57:08;;;;;;;;;;;;;;;24.65;47.22;95618.63;4968103;28;7307;-61
2022/11/12 04:59:34;;;;;;;;;;;;;;;24.64;46.95;95614.34;5002795;28;7152;-62
2022/11/12 05:02:00;;;;;;;;;;;;;;;24.66;46.95;95613.91;5005424;28;7942;-62
2022/11/12 05:04:29;;;;;;;;;;;;;;;24.64;47.19;95611.59;4994628;28;7253;-62
2022/11/12 05:06:58;;;;;;;;;;;;;;;24.63;46.92;95615.59;5003500;28;7047;-62
2022/11/12 05:09:28;;;;;;;;;;;;;;;24.62;46.99;95619.56;4995795;28;7023;-62
2022/11/12 05:11:58;;;;;;;;;;;;;;;24.62;46.89;95611.31;5002643;28;7117;-62
2022/11/12 05:14:24;;;;;;;;;;;;;;;24.62;46.62;95603.06;5011042;28;7058;-62
2022/11/12 05:17:14;;;;;;;;;;;;;;;24.64;47.55;95602.59;4996285;28;7022;-62
2022/11/12 05:19:47;;;;;;;;;;;;;;;24.64;46.92;95600.59;4999940;28;9389;-62
2022/11/12 05:22:25;;;;;;;;;;;;;;;24.63;46.96;95601.84;4994428;28;7286;-62
2022/11/12 05:24:51;;;;;;;;;;;;;;;24.61;46.92;95596.06;4994775;28;8934;-62
2022/11/12 05:27:43;;;;;;;;;;;;;;;24.67;47.58;95599.66;5010602;28;7454;-62
2022/11/12 05:30:18;;;;;;;;;;;;;;;24.66;46.75;95594.63;4938812;28;7469;-61
2022/11/12 05:32:44;;;;;;;;;;;;;;;24.64;46.70;95594.34;4949879;28;7236;-61
2022/11/12 05:35:10;;;;;;;;;;;;;;;24.62;47.14;95594.06;4967025;28;7274;-61
2022/11/12 05:37:36;;;;;;;;;;;;;;;24.62;46.86;95594.81;4953028;28;7269;-62
2022/11/12 05:40:02;;;;;;;;;;;;;;;24.61;47.64;95598.81;4959136;28;7627;-62
2022/11/12 05:42:43;;;;;;;;;;;;;;;24.61;47.29;95595.28;4960013;28;7228;-62
2022/11/12 05:45:20;;;;;;;;;;;;;;;24.61;47.44;95590.56;4950057;28;7550;-62
2022/11/12 05:47:56;;;;;;;;;;;;;;;24.61;47.04;95595.28;4953342;28;9879;-61
2022/11/12 05:50:23;;;;;;;;;;;;;;;24.62;46.67;95591.31;4949765;28;9450;-62
2022/11/12 05:52:49;;;;;;;;;;;;;;;24.60;46.97;95594.53;4967537;28;7270;-62
2022/11/12 05:55:16;;;;;;;;;;;;;;;24.58;47.15;95593.47;4959234;28;7156;-62
2022/11/12 05:57:42;;;;;;;;;;;;;;;24.62;47.49;95599.56;4954600;28;7091;-62
2022/11/12 06:00:19;;;;;;;;;;;;;;;24.63;46.78;95604.59;4946122;28;7183;-61
2022/11/12 06:02:56;;;;;;;;;;;;;;;24.62;47.10;95608.56;4937162;28;7135;-62
2022/11/12 06:05:24;;;;;;;;;;;;;;;24.63;47.03;95610.09;4970552;28;7417;-62
2022/11/12 06:08:00;;;;;;;;;;;;;;;24.63;47.19;95612.09;4988057;28;9044;-62
2022/11/12 06:10:26;;;;;;;;;;;;;;;24.61;46.88;95614.56;4999933;28;6980;-62
2022/11/12 06:12:53;;;;;;;;;;;;;;;24.56;47.23;95615.97;5010801;28;8457;-62
2022/11/12 06:15:21;;;;;;;;;;;;;;;24.54;47.28;95623.19;5010560;28;7052;-61
2022/11/12 06:17:50;;;;;;;;;;;;;;;24.51;47.05;95619.38;5001249;28;7228;-62
2022/11/12 06:20:19;;;;;;;;;;;;;;;24.54;47.40;95615.69;5001381;28;9138;-62
2022/11/12 06:23:04;;;;;;;;;;;;;;;24.54;47.51;95623.19;5003777;28;8968;-62
2022/11/12 06:25:31;;;;;;;;;;;;;;;24.57;47.63;95628.50;5008381;28;7102;-61
2022/11/12 06:28:05;;;;;;;;;;;;;;;24.63;47.13;95634.84;4992587;28;7254;-62
2022/11/12 06:30:41;;;;;;;;;;;;;;;24.63;47.45;95639.59;4998234;28;7235;-62
2022/11/12 06:33:13;;;;;;;;;;;;;;;24.63;47.55;95636.84;4991831;28;9020;-62
2022/11/12 06:35:41;;;;;;;;;;;;;;;24.63;47.17;95639.59;4998502;28;7306;-61
2022/11/12 06:38:07;;;;;;;;;;;;;;;24.63;47.06;95637.59;5004845;28;9248;-62
2022/11/12 06:40:45;;;;;;;;;;;;;;;24.65;47.04;95646.13;5007239;28;7025;-62
2022/11/12 06:43:27;;;;;;;;;;;;;;;24.66;47.41;95639.38;5010737;28;7237;-62
2022/11/12 06:46:05;;;;;;;;;;;;;;;24.66;47.13;95644.88;4996650;28;7054;-61
2022/11/12 06:48:34;;;;;;;;;;;;;;;24.64;47.09;95647.34;5010087;28;7411;-62
2022/11/12 06:51:15;;;;;;;;;;;;;;;24.63;47.33;95639.59;5014479;28;7049;-62
2022/11/12 06:53:43;;;;;;;;;;;;;;;24.63;46.97;95637.59;4997387;28;7117;-61
2022/11/12 06:56:12;;;;;;;;;;;;;;;24.66;47.45;95633.16;4997387;28;7257;-62
2022/11/12 06:58:38;;;;;;;;;;;;;;;24.69;47.24;95629.44;5005096;28;9118;-62
2022/11/12 07:01:16;;;;;;;;;;;;;;;24.73;47.63;95630.00;5007255;28;9067;-62
2022/11/12 07:03:52;;;;;;;;;;;;;;;24.79;47.19;95622.66;5002504;28;7273;-62
2022/11/12 07:06:21;;;;;;;;;;;;;;;24.80;46.41;95623.38;5010108;28;8680;-61
2022/11/12 07:09:00;;;;;;;;;;;;;;;24.80;45.79;95634.38;5006516;28;7877;-61
2022/11/12 07:11:26;;;;;;;;;;;;;;;24.80;46.07;95623.38;4999616;28;7330;-62
2022/11/12 07:13:52;;;;;;;;;;;;;;;24.80;46.57;95632.41;5012073;28;7030;-62
2022/11/12 07:16:18;;;;;;;;;;;;;;;24.79;46.73;95639.16;4996282;28;8974;-62
2022/11/12 07:18:45;;;;;;;;;;;;;;;24.81;46.77;95646.91;5005429;28;7860;-62
2022/11/12 07:21:20;;;;;;;;;;;;;;;24.82;46.17;95637.41;5003565;28;9139;-62
2022/11/12 07:23:47;;;;;;;;;;;;;;;24.80;46.58;95640.66;5006292;28;7583;-61
2022/11/12 07:26:14;;;;;;;;;;;;;;;24.80;46.51;95648.91;5013282;28;7975;-62
2022/11/12 07:28:41;;;;;;;;;;;;;;;24.79;46.75;95649.41;5014628;28;9177;-63
2022/11/12 07:31:11;;;;;;;;;;;;;;;24.82;46.68;95651.94;5014306;28;7074;-62
2022/11/12 07:33:38;;;;;;;;;;;;;;;24.87;47.93;95656.03;5008269;28;7154;-62
2022/11/12 07:36:07;;;;;;;;;;;;;;;24.91;47.57;95656.59;5006576;28;7191;-62
2022/11/12 07:38:38;;;;;;;;;;;;;;;24.93;49.39;95651.34;4998746;28;8980;-62
2022/11/12 07:41:10;;;;;;;;;;;;;;;24.94;47.64;95645.41;5003727;28;7117;-62
2022/11/12 07:43:40;;;;;;;;;;;;;;;24.93;47.18;95651.34;5001660;28;7465;-62
2022/11/12 07:46:11;;;;;;;;;;;;;;;24.97;46.58;95643.69;4998151;28;8666;-62
2022/11/12 07:48:45;;;;;;;;;;;;;;;24.99;46.16;95638.47;5002878;28;8326;-62
2022/11/12 07:51:17;;;;;;;;;;;;;;;24.95;46.64;95635.91;5000653;28;7058;-62
2022/11/12 07:53:46;;;;;;;;;;;;;;;24.95;46.40;95646.91;5005621;28;8490;-62
2022/11/12 07:56:18;;;;;;;;;;;;;;;24.94;46.33;95647.38;4997741;28;7373;-62
2022/11/12 07:58:45;;;;;;;;;;;;;;;24.89;46.54;95648.81;5004346;28;9085;-62
2022/11/12 08:01:36;;;;;;;;;;;;;;;24.86;46.71;95651.78;5020609;28;7075;-62
2022/11/12 08:04:10;;;;;;;;;;;;;;;24.84;47.21;95643.97;5000451;28;10526;-62
2022/11/12 08:06:37;;;;;;;;;;;;;;;24.84;47.42;95652.22;4999834;28;7131;-62
2022/11/12 08:09:07;;;;;;;;;;;;;;;24.78;47.70;95656.13;5019851;28;9100;-62
2022/11/12 08:11:34;;;;;;;;;;;;;;;24.73;47.81;95663.78;5007069;28;7439;-62
2022/11/12 08:14:04;;;;;;;;;;;;;;;24.78;47.46;95664.38;5007294;28;8295;-62
2022/11/12 08:16:30;;;;;;;;;;;;;;;24.79;47.67;95654.91;5002461;28;6996;-62
2022/11/12 08:19:22;;;;;;;;;;;;;;;24.79;47.48;95654.91;5005891;28;7011;-61
2022/11/12 08:21:50;;;;;;;;;;;;;;;24.80;47.45;95657.16;4975114;28;8665;-62
2022/11/12 08:24:25;;;;;;;;;;;;;;;24.81;47.42;95647.69;4969184;28;9148;-60
2022/11/12 08:26:59;;;;;;;;;;;;;;;24.82;46.96;95654.69;4959198;28;11894;-62
2022/11/12 08:29:35;;;;;;;;;;;;;;;24.85;46.95;95658.50;4975050;28;7286;-62
2022/11/12 08:32:04;;;;;;;;;;;;;;;24.87;47.03;95651.28;4974319;28;8697;-62
2022/11/12 08:34:29;;;;;;;;;;;;;;;24.86;46.78;95649.00;4970984;28;7171;-61
2022/11/12 08:36:58;;;;;;;;;;;;;;;24.90;47.11;95638.56;4956917;28;7551;-62
2022/11/12 08:39:26;;;;;;;;;;;;;;;24.90;46.69;95646.81;4954412;28;7748;-62
2022/11/12 08:41:52;;;;;;;;;;;;;;;24.91;46.60;95640.06;4968868;28;7568;-62
2022/11/12 08:44:27;;;;;;;;;;;;;;;24.93;46.17;95643.88;4967039;28;7123;-61
2022/11/12 08:46:56;;;;;;;;;;;;;;;24.91;46.93;95643.59;4943055;28;7255;-62
2022/11/12 08:49:27;;;;;;;;;;;;;;;24.95;46.92;95657.16;4952638;28;7217;-62
2022/11/12 08:51:57;;;;;;;;;;;;;;;24.93;46.34;95659.63;4957852;28;7045;-62
2022/11/12 08:54:23;;;;;;;;;;;;;;;24.93;46.32;95662.38;4955577;28;7036;-61
2022/11/12 08:56:50;;;;;;;;;;;;;;;24.95;46.32;95662.66;4961287;28;7046;-62
2022/11/12 08:59:19;;;;;;;;;;;;;;;24.93;46.38;95654.13;5018372;28;9065;-62
2022/11/12 09:01:45;;;;;;;;;;;;;;;24.94;47.21;95650.13;5000197;28;6879;-62
2022/11/12 09:04:12;;;;;;;;;;;;;;;24.94;46.98;95644.63;5009803;28;9572;-62
2022/11/12 09:06:38;;;;;;;;;;;;;;;24.95;46.90;95640.63;5010633;28;7162;-61
2022/11/12 09:09:04;;;;;;;;;;;;;;;24.92;46.43;95645.13;5001669;28;9412;-62
2022/11/12 09:11:31;;;;;;;;;;;;;;;24.92;46.69;95641.59;5004837;28;8676;-61
2022/11/12 09:14:00;;;;;;;;;;;;;;;24.98;46.79;95656.19;5002068;28;9097;-61
2022/11/12 09:16:35;;;;;;;;;;;;;;;25.01;46.45;95660.78;5009506;28;7459;-61
2022/11/12 09:19:02;;;;;;;;;;;;;;;24.95;45.82;95663.41;5013056;28;7296;-61
2022/11/12 09:21:30;;;;;;;;;;;;;;;24.95;46.09;95659.91;5001180;28;9317;-62
2022/11/12 09:23:58;;;;;;;;;;;;;;;24.93;45.53;95659.63;5008647;28;7051;-61
2022/11/12 09:26:28;;;;;;;;;;;;;;;24.91;46.05;95653.84;5002745;28;7156;-61
2022/11/12 09:29:00;;;;;;;;;;;;;;;24.91;45.92;95653.84;5008811;28;7013;-61
2022/11/12 09:31:26;;;;;;;;;;;;;;;24.93;45.22;95662.38;5000964;28;8485;-62
2022/11/12 09:33:52;;;;;;;;;;;;;;;24.93;46.27;95654.88;5000992;28;7395;-62
2022/11/12 09:36:20;;;;;;;;;;;;;;;24.92;45.53;95653.38;5004148;28;7019;-62
2022/11/12 09:38:48;;;;;;;;;;;;;;;24.92;45.41;95655.38;5026381;28;7068;-61
2022/11/12 09:41:25;;;;;;;;;;;;;;;24.92;45.78;95653.38;5005259;28;8900;-61
2022/11/12 09:44:24;;;;;;;;;;;;;;;24.92;45.50;95663.63;5007716;28;8990;-61
2022/11/12 09:47:10;;;;;;;;;;;;;;;24.93;45.38;95665.13;4992649;28;8169;-61
2022/11/12 09:49:49;;;;;;;;;;;;;;;24.93;45.49;95663.13;5003026;28;7366;-62
2022/11/12 09:52:29;;;;;;;;;;;;;;;24.92;45.50;95658.13;5008876;28;9540;-61
2022/11/12 09:55:29;;;;;;;;;;;;;;;24.90;45.39;95655.09;5009110;28;9448;-61
2022/11/12 09:58:09;;;;;;;;;;;;;;;24.85;45.56;95659.25;5007004;28;7860;-61
2022/11/12 10:00:37;;;;;;;;;;;;;;;24.91;45.92;95660.09;5000705;28;7207;-61
2022/11/12 10:03:38;;;;;;;;;;;;;;;24.91;45.24;95649.09;5006427;28;8406;-61
2022/11/12 10:06:42;;;;;;;;;;;;;;;24.91;45.33;95662.09;4926166;28;8738;-61
2022/11/12 10:09:21;;;;;;;;;;;;;;;24.89;45.48;95664.56;4893567;29;7212;-61
2022/11/12 10:12:41;;;;;;;;;;;;;;;24.92;46.22;95666.38;4890145;29;9042;-61
2022/11/12 10:18:37;;;;;;;;;;;;;;;24.92;45.33;95658.13;4815497;29;7246;-61
2022/11/12 10:21:22;;;;;;;;;;;;;;;24.91;45.75;95656.59;4813303;29;7369;-61
2022/11/12 10:24:00;;;;;;;;;;;;;;;24.88;45.58;95654.81;4818508;29;7469;-61
2022/11/12 10:26:36;;;;;;;;;;;;;;;24.89;46.14;95648.03;4798756;29;7348;-61
2022/11/12 10:29:10;;;;;;;;;;;;;;;24.93;45.70;95640.34;4799142;29;8533;-61
2022/11/12 10:31:37;;;;;;;;;;;;;;;24.93;46.05;95641.13;4815323;29;7193;-61
2022/11/12 10:34:12;;;;;;;;;;;;;;;24.91;46.39;95632.56;4812492;29;7030;-61
2022/11/12 10:36:47;;;;;;;;;;;;;;;24.95;45.76;95629.63;4809557;29;7323;-61
2022/11/12 10:39:36;;;;;;;;;;;;;;;24.90;45.77;95628.31;4815621;29;7459;-61
2022/11/12 10:42:13;;;;;;;;;;;;;;;24.90;46.00;95620.06;4845002;29;8805;-61
2022/11/12 10:44:42;;;;;;;;;;;;;;;24.93;45.76;95623.84;4842373;29;7249;-61
2022/11/12 10:47:37;;;;;;;;;;;;;;;24.94;45.86;95612.38;4911998;29;7109;-61
2022/11/12 10:53:39;;;;;;;;;;;;;;;24.93;45.99;95610.84;4964905;28;9073;-61
2022/11/12 10:56:32;;;;;;;;;;;;;;;24.94;46.59;95612.38;4963203;28;6972;-61
2022/11/12 10:59:17;;;;;;;;;;;;;;;24.94;46.37;95606.88;4948779;28;7765;-61
2022/11/12 11:01:54;;;;;;;;;;;;;;;24.96;46.54;95612.66;4948418;28;8927;-62
2022/11/12 11:04:30;;;;;;;;;;;;;;;24.95;46.35;95618.63;4978944;28;8618;-61
2022/11/12 11:07:27;;;;;;;;;;;;;;;24.95;45.58;95602.09;4960592;28;7402;-61
2022/11/12 11:09:59;;;;;;;;;;;;;;;24.95;45.71;95599.34;4952805;28;7362;-61
2022/11/12 11:12:31;;;;;;;;;;;;;;;24.96;45.87;95604.41;4965053;28;7026;-61
2022/11/12 11:15:18;;;;;;;;;;;;;;;24.94;46.18;95595.09;4947806;28;7299;-62
2022/11/12 11:17:45;;;;;;;;;;;;;;;24.94;46.50;95606.09;4949440;28;7246;-61
2022/11/12 11:20:16;;;;;;;;;;;;;;;24.95;46.42;95607.59;4964188;28;7870;-62
2022/11/12 11:23:20;;;;;;;;;;;;;;;24.95;46.55;95605.63;4950473;28;7287;-61
2022/11/12 11:25:52;;;;;;;;;;;;;;;24.95;46.06;95610.34;4926024;29;7292;-61
2022/11/12 11:28:46;;;;;;;;;;;;;;;24.96;46.31;95598.13;4907901;29;7024;-61
2022/11/12 11:31:16;;;;;;;;;;;;;;;24.96;46.05;95593.38;4986771;28;9069;-62
2022/11/12 11:33:55;;;;;;;;;;;;;;;24.93;45.98;95594.34;4967756;28;9141;-61
2022/11/12 11:36:38;;;;;;;;;;;;;;;24.91;45.88;95590.53;4970458;28;9489;-61
2022/11/12 11:39:37;;;;;;;;;;;;;;;24.92;45.27;95575.56;4964829;28;7029;-61
2022/11/12 11:46:08;;;;;;;;;;;;;;;24.92;45.41;95564.53;4984133;28;7048;-61
2022/11/12 11:49:10;;;;;;;;;;;;;;;24.93;46.23;95558.56;4912727;29;9324;-61
2022/11/12 11:52:02;;;;;;;;;;;;;;;24.97;45.49;95550.13;4926881;29;7314;-62
2022/11/12 11:55:20;;;;;;;;;;;;;;;24.98;45.81;95546.09;4916909;29;7146;-61
2022/11/12 11:58:26;;;;;;;;;;;;;;;25.00;45.48;95554.63;4898966;29;7281;-61
2022/11/12 12:01:38;;;;;;;;;;;;;;;24.97;45.87;95558.38;4882579;29;7366;-62
2022/11/12 12:04:41;;;;;;;;;;;;;;;24.97;45.86;95556.34;4835992;29;8224;-61
2022/11/12 12:07:31;;;;;;;;;;;;;;;25.00;46.63;95549.13;4839527;29;8938;-61
2022/11/12 12:10:26;;;;;;;;;;;;;;;24.96;46.82;95543.06;4843646;29;7302;-61
2022/11/12 12:13:04;;;;;;;;;;;;;;;24.96;46.53;95549.34;4841087;29;7273;-61
2022/11/12 12:15:56;;;;;;;;;;;;;;;24.95;47.22;95545.06;4838190;29;9553;-61
2022/11/12 12:18:36;;;;;;;;;;;;;;;24.99;47.80;95542.88;4839803;29;7095;-61
2022/11/12 12:21:17;;;;;;;;;;;;;;;25.02;47.54;95538.41;4881084;29;7332;-61
2022/11/12 12:23:49;;;;;;;;;;;;;;;25.03;47.71;95535.19;4887416;29;9109;-61
2022/11/12 12:26:26;;;;;;;;;;;;;;;25.00;47.80;95527.13;4895966;29;9025;-61
2022/11/12 12:29:12;;;;;;;;;;;;;;;24.99;47.00;95528.38;4887474;29;8722;-61
2022/11/12 12:32:03;;;;;;;;;;;;;;;24.98;47.04;95518.59;4873875;29;9110;-61
2022/11/12 12:34:34;;;;;;;;;;;;;;;25.01;47.42;95528.66;4893708;29;7161;-61
2022/11/12 12:37:20;;;;;;;;;;;;;;;25.02;46.92;95522.66;4922717;28;7199;-61
2022/11/12 12:40:32;;;;;;;;;;;;;;;25.03;46.90;95521.44;4938995;28;7281;-61
2022/11/12 12:43:26;;;;;;;;;;;;;;;25.02;47.14;95517.16;4978389;28;8792;-61
2022/11/12 12:46:04;;;;;;;;;;;;;;;25.05;47.39;95518.19;4958432;28;7152;-61
2022/11/12 12:48:46;;;;;;;;;;;;;;;25.03;46.63;95510.41;4988585;28;8991;-61
2022/11/12 12:51:12;;;;;;;;;;;;;;;25.05;47.33;95513.44;4968045;28;7297;-61
2022/11/12 12:53:54;;;;;;;;;;;;;;;25.03;46.99;95513.16;4970972;28;8724;-61
2022/11/12 12:56:23;;;;;;;;;;;;;;;25.01;47.07;95506.63;4968503;28;7038;-61
2022/11/12 12:58:57;;;;;;;;;;;;;;;25.03;46.95;95504.16;4981102;28;7027;-61
2022/11/12 13:01:35;;;;;;;;;;;;;;;25.05;47.08;95504.44;4970045;28;8233;-61
2022/11/12 13:04:07;;;;;;;;;;;;;;;25.04;47.14;95505.66;4974962;28;7129;-61
2022/11/12 13:06:53;;;;;;;;;;;;;;;25.06;46.91;95500.41;4987313;28;7223;-61
2022/11/12 13:09:28;;;;;;;;;;;;;;;25.03;47.08;95498.66;4955590;28;9067;-61
2022/11/12 13:15:16;;;;;;;;;;;;;;;25.06;47.02;95492.16;4974004;28;7558;-61
2022/11/12 13:17:47;;;;;;;;;;;;;;;25.03;46.59;95485.66;4959469;28;7209;-61
2022/11/12 13:20:34;;;;;;;;;;;;;;;25.07;47.05;95479.94;5005205;28;7003;-61
2022/11/12 13:23:00;;;;;;;;;;;;;;;25.04;47.20;95478.13;5020279;28;7551;-61
2022/11/12 13:25:38;;;;;;;;;;;;;;;25.04;46.96;95481.63;5010698;28;9102;-61
2022/11/12 13:28:09;;;;;;;;;;;;;;;25.05;46.96;95479.66;5007666;28;9133;-61
2022/11/12 13:31:25;;;;;;;;;;;;;;;25.07;47.36;95477.16;5003301;28;7101;-61
2022/11/12 13:33:51;;;;;;;;;;;;;;;25.07;47.06;95474.41;4935214;28;7029;-61
2022/11/12 13:36:28;;;;;;;;;;;;;;;25.07;46.82;95474.41;4929530;28;8999;-61
2022/11/12 13:39:12;;;;;;;;;;;;;;;25.08;47.16;95470.41;4934115;28;9387;-61
2022/11/12 13:44:41;;;;;;;;;;;;;;;25.10;46.67;95473.47;4944540;28;7284;-61
2022/11/12 13:47:25;;;;;;;;;;;;;;;25.07;47.25;95471.66;4940370;28;7372;-61
2022/11/12 13:49:59;;;;;;;;;;;;;;;25.07;46.69;95472.44;4933622;28;7231;-61
2022/11/12 13:52:39;;;;;;;;;;;;;;;25.07;46.60;95468.91;4929063;28;8965;-61
2022/11/12 13:55:29;;;;;;;;;;;;;;;25.10;46.80;95467.97;4949800;28;7070;-61
2022/11/12 13:57:55;;;;;;;;;;;;;;;25.07;46.90;95466.94;4925982;28;7208;-61
2022/11/12 14:00:27;;;;;;;;;;;;;;;25.09;46.84;95469.94;4938500;28;7494;-61
2022/11/12 14:03:01;;;;;;;;;;;;;;;25.08;46.72;95468.44;4941389;28;7028;-61
2022/11/12 14:05:45;;;;;;;;;;;;;;;25.09;47.36;95469.19;4921949;29;7446;-62
2022/11/12 14:08:32;;;;;;;;;;;;;;;25.11;46.28;95461.19;4985565;28;7381;-61
2022/11/12 14:11:20;;;;;;;;;;;;;;;25.11;46.42;95461.97;5025266;28;9064;-61
2022/11/12 14:14:18;;;;;;;;;;;;;;;25.08;47.13;95464.91;5002690;28;7203;-62